Time;durP1;ratioP1;P1;durP2;ratioP2;P2;SDS_P1;SDS_P2;PMS_P1;PMS_P2;Temp;Humidity;BMP_temperature;BMP_pressure;BME280_temperature;BME280_humidity;BME280_pressure;Samples;Min_cycle;Max_cycle;Signal;HPM_P1;HPM_P2
2023/03/22 03:30:17;;;;;;;;;;;;;;;9.14;75.14;99609.34;1086873;54;19933;-79
2023/03/22 03:32:55;;;;;;;;;;;;;;;9.17;74.95;99615.22;1086955;54;19943;-80
2023/03/22 03:34:11;;;;;;;;;;;;;;;9.23;74.80;99613.81;1087743;54;19955;-78
2023/03/22 03:35:26;;;;;;;;;;;;;;;9.21;74.78;99613.09;1088343;54;19950;-81
2023/03/22 03:36:32;;;;;;;;;;;;;;;9.25;74.60;99616.34;1088258;54;19943;-83
2023/03/22 03:37:38;;;;;;;;;;;;;;;9.28;74.37;99614.22;1090427;46;19957;-83
2023/03/22 03:38:42;;;;;;;;;;;;;;;9.26;74.42;99624.19;1090787;46;19938;-82
2023/03/22 03:41:19;;;;;;;;;;;;;;;9.23;74.80;99619.13;1088159;54;19927;-82
2023/03/22 03:42:23;;;;;;;;;;;;;;;9.24;75.09;99625.34;1087994;54;19946;-81
2023/03/22 03:43:27;;;;;;;;;;;;;;;9.28;74.22;99616.03;1088171;54;19953;-82
2023/03/22 03:44:29;;;;;;;;;;;;;;;9.29;74.34;99613.25;1088198;54;19943;-82
2023/03/22 03:45:42;;;;;;;;;;;;;;;9.27;74.46;99617.88;1088080;54;19938;-82
2023/03/22 03:46:45;;;;;;;;;;;;;;;9.32;74.46;99612.09;1087941;54;19943;-81
2023/03/22 03:50:57;;;;;;;;;;;;;;;9.50;73.57;99615.66;1088051;54;19942;-82
2023/03/22 03:51:58;;;;;;;;;;;;;;;9.56;73.40;99610.69;1088164;54;19966;-82
2023/03/22 03:53:16;;;;;;;;;;;;;;;9.54;73.53;99616.19;1088290;54;19942;-81
2023/03/22 03:54:18;;;;;;;;;;;;;;;9.56;73.31;99616.91;1088019;54;19957;-81
2023/03/22 03:55:33;;;;;;;;;;;;;;;9.58;73.36;99609.59;1087862;54;19927;-81
2023/03/22 03:56:34;;;;;;;;;;;;;;;9.60;73.18;99606.75;1088171;54;19969;-81
2023/03/22 03:57:39;;;;;;;;;;;;;;;9.64;72.88;99608.13;1088120;54;19939;-83
2023/03/22 03:58:40;;;;;;;;;;;;;;;9.66;72.78;99608.81;1088309;54;19931;-82
2023/03/22 03:59:47;;;;;;;;;;;;;;;9.66;72.76;99608.81;1088078;54;19995;-81
2023/03/22 04:00:52;;;;;;;;;;;;;;;9.64;72.80;99611.66;1088228;54;19943;-82
2023/03/22 04:03:38;;;;;;;;;;;;;;;9.68;72.45;99602.34;1088162;54;19935;-83
2023/03/22 04:04:40;;;;;;;;;;;;;;;9.72;72.28;99597.56;1088265;54;19951;-82
2023/03/22 04:05:58;;;;;;;;;;;;;;;9.73;72.42;99604.56;1088201;54;19989;-82
2023/03/22 04:07:01;;;;;;;;;;;;;;;9.77;72.08;99605.13;1088118;54;19953;-82
2023/03/22 04:09:37;;;;;;;;;;;;;;;9.83;71.86;99596.50;1088155;54;20007;-83
2023/03/22 04:10:41;;;;;;;;;;;;;;;9.83;71.44;99597.31;1088170;54;19931;-81
2023/03/22 04:11:47;;;;;;;;;;;;;;;9.83;71.66;99602.66;1088167;54;19942;-83
2023/03/22 04:12:48;;;;;;;;;;;;;;;9.83;71.46;99600.00;1088205;54;19946;-83
2023/03/22 04:15:12;;;;;;;;;;;;;;;9.82;71.45;99600.97;1093637;39;20562;-81
2023/03/22 04:16:14;;;;;;;;;;;;;;;9.78;71.73;99602.28;1088342;54;19966;-82
2023/03/22 04:18:51;;;;;;;;;;;;;;;9.71;72.04;99595.88;1088121;54;20758;-82
2023/03/22 04:19:55;;;;;;;;;;;;;;;9.73;71.76;99604.56;1088252;54;19965;-79
2023/03/22 04:22:33;;;;;;;;;;;;;;;9.79;71.42;99597.78;1088196;54;19946;-84
2023/03/22 04:23:34;;;;;;;;;;;;;;;9.79;71.70;99597.78;1091248;39;20454;-82
2023/03/22 04:29:11;;;;;;;;;;;;;;;9.86;71.23;99584.69;1088081;54;19935;-83
2023/03/22 04:30:29;;;;;;;;;;;;;;;9.88;71.25;99582.69;1088052;54;19939;-82
2023/03/22 04:31:31;;;;;;;;;;;;;;;9.81;71.21;99587.78;1088261;54;19935;-82
2023/03/22 04:32:38;;;;;;;;;;;;;;;9.79;71.61;99587.09;1088286;54;19943;-84
2023/03/22 04:33:39;;;;;;;;;;;;;;;9.81;71.42;99586.00;1088205;54;19942;-82
2023/03/22 04:35:09;;;;;;;;;;;;;;;9.81;71.45;99586.00;1088825;46;19942;-81
2023/03/22 04:36:14;;;;;;;;;;;;;;;9.72;71.43;99581.56;1088141;54;19965;-81
2023/03/22 04:37:23;;;;;;;;;;;;;;;9.64;71.48;99584.09;1088087;54;19949;-82
2023/03/22 04:38:27;;;;;;;;;;;;;;;9.59;71.48;99586.41;1088317;54;20006;-84
2023/03/22 04:41:16;;;;;;;;;;;;;;;9.43;71.98;99582.56;1090210;39;20487;-83
2023/03/22 04:42:17;;;;;;;;;;;;;;;9.39;72.33;99581.16;1088156;54;19953;-84
2023/03/22 04:44:53;;;;;;;;;;;;;;;9.32;72.67;99585.44;1091341;39;20404;-83
2023/03/22 04:45:57;;;;;;;;;;;;;;;9.28;72.99;99578.69;1089246;46;19966;-82
2023/03/22 04:48:34;;;;;;;;;;;;;;;9.29;72.76;99572.38;1088549;39;20706;-83
2023/03/22 04:49:35;;;;;;;;;;;;;;;9.31;73.07;99570.41;1088273;54;19946;-82
2023/03/22 04:50:41;;;;;;;;;;;;;;;9.33;72.83;99571.09;1088315;54;19946;-83
2023/03/22 04:51:43;;;;;;;;;;;;;;;9.34;72.81;99570.13;1088413;54;19949;-82
2023/03/22 04:52:52;;;;;;;;;;;;;;;9.35;72.73;99571.81;1089062;46;19939;-84
2023/03/22 04:53:56;;;;;;;;;;;;;;;9.39;72.47;99567.81;1088338;54;19943;-83
2023/03/22 04:55:19;;;;;;;;;;;;;;;9.42;72.51;99564.88;1090978;46;20611;-82
2023/03/22 04:56:21;;;;;;;;;;;;;;;9.50;72.12;99559.63;1088176;54;20662;-83
2023/03/22 04:57:39;;;;;;;;;;;;;;;9.54;71.93;99557.50;1092782;39;20427;-83
2023/03/22 04:58:48;;;;;;;;;;;;;;;9.54;71.92;99551.34;1088255;54;19935;-83
2023/03/22 04:59:52;;;;;;;;;;;;;;;9.55;71.69;99558.31;1088295;54;19942;-83
2023/03/22 05:00:54;;;;;;;;;;;;;;;9.51;71.82;99553.31;1088285;54;20434;-84
2023/03/22 05:01:58;;;;;;;;;;;;;;;9.54;71.69;99552.16;1088060;54;19957;-82
2023/03/22 05:03:02;;;;;;;;;;;;;;;9.56;71.48;99555.53;1088149;54;19942;-84
2023/03/22 05:04:06;;;;;;;;;;;;;;;9.64;71.32;99552.09;1088146;54;19942;-84
2023/03/22 05:05:08;;;;;;;;;;;;;;;9.55;71.10;99558.31;1088279;54;19949;-82
2023/03/22 05:06:12;;;;;;;;;;;;;;;9.58;71.06;99552.69;1088150;54;19942;-84
2023/03/22 05:07:13;;;;;;;;;;;;;;;9.63;70.94;99553.91;1088156;54;19939;-83
2023/03/22 05:08:19;;;;;;;;;;;;;;;9.62;70.97;99560.25;1089450;46;19942;-82
2023/03/22 05:09:23;;;;;;;;;;;;;;;9.60;70.71;99556.06;1088063;54;19942;-81
2023/03/22 05:10:29;;;;;;;;;;;;;;;9.59;70.98;99552.53;1090271;46;19963;-83
2023/03/22 05:11:30;;;;;;;;;;;;;;;9.59;70.68;99557.03;1088208;54;20454;-84
2023/03/22 05:12:35;;;;;;;;;;;;;;;9.57;70.75;99556.34;1088200;54;19994;-81
2023/03/22 05:13:37;;;;;;;;;;;;;;;9.55;70.82;99556.50;1089066;46;19973;-83
2023/03/22 05:16:13;;;;;;;;;;;;;;;9.51;71.15;99552.44;1088333;54;19926;-82
2023/03/22 05:17:14;;;;;;;;;;;;;;;9.41;71.37;99554.34;1088236;54;19943;-84
2023/03/22 05:18:20;;;;;;;;;;;;;;;9.44;71.52;99548.72;1090820;39;20499;-84
2023/03/22 05:19:23;;;;;;;;;;;;;;;9.44;71.11;99556.72;1088289;54;19949;-83
2023/03/22 05:20:27;;;;;;;;;;;;;;;9.44;71.18;99546.03;1088261;54;19954;-84
2023/03/22 05:21:35;;;;;;;;;;;;;;;9.43;71.29;99550.56;1088201;54;19942;-82
2023/03/22 05:22:39;;;;;;;;;;;;;;;9.48;70.95;99542.91;1089280;46;19966;-83
2023/03/22 05:23:54;;;;;;;;;;;;;;;9.38;71.59;99541.31;1088333;54;19959;-82
2023/03/22 05:25:01;;;;;;;;;;;;;;;9.37;71.32;99553.78;1088170;54;19990;-82
2023/03/22 05:26:03;;;;;;;;;;;;;;;9.34;71.59;99548.78;1089929;46;19942;-84
2023/03/22 05:27:10;;;;;;;;;;;;;;;9.39;71.11;99554.50;1088342;54;19974;-83
2023/03/22 05:28:13;;;;;;;;;;;;;;;9.35;71.39;99553.13;1088238;54;19927;-81
2023/03/22 05:29:18;;;;;;;;;;;;;;;9.30;71.49;99550.06;1088202;54;20532;-83
2023/03/22 05:30:20;;;;;;;;;;;;;;;9.30;71.46;99555.38;1089317;46;19974;-82
2023/03/22 05:31:27;;;;;;;;;;;;;;;9.30;71.53;99555.38;1088138;54;19954;-83
2023/03/22 05:32:28;;;;;;;;;;;;;;;9.24;71.86;99556.00;1088233;54;19996;-84
2023/03/22 05:33:33;;;;;;;;;;;;;;;9.26;71.61;99554.84;1087412;54;19950;-83
2023/03/22 05:35:45;;;;;;;;;;;;;;;9.21;71.81;99565.97;1087724;54;19927;-83
2023/03/22 05:36:50;;;;;;;;;;;;;;;9.21;71.70;99573.09;1087728;54;19939;-83
2023/03/22 05:37:54;;;;;;;;;;;;;;;9.13;72.18;99570.34;1088319;54;19957;-84
2023/03/22 05:38:55;;;;;;;;;;;;;;;9.07;72.28;99573.59;1088250;54;19950;-82
2023/03/22 05:40:04;;;;;;;;;;;;;;;9.07;72.21;99578.94;1088424;54;20002;-83
2023/03/22 05:41:05;;;;;;;;;;;;;;;9.08;72.38;99573.44;1088245;54;20576;-83
2023/03/22 05:42:13;;;;;;;;;;;;;;;8.99;72.66;99579.66;1088255;54;20455;-83
2023/03/22 05:43:14;;;;;;;;;;;;;;;8.96;72.70;99580.78;1088121;54;19958;-83
2023/03/22 05:44:18;;;;;;;;;;;;;;;8.98;72.75;99578.81;1088161;54;19931;-84
2023/03/22 05:45:20;;;;;;;;;;;;;;;8.95;73.05;99583.63;1088254;54;19966;-83
2023/03/22 05:46:24;;;;;;;;;;;;;;;9.00;72.91;99578.66;1088257;54;19930;-83
2023/03/22 05:47:25;;;;;;;;;;;;;;;9.00;72.74;99581.34;1088228;54;19934;-83
2023/03/22 05:48:37;;;;;;;;;;;;;;;8.93;73.08;99580.25;1088284;54;19943;-83
2023/03/22 05:49:38;;;;;;;;;;;;;;;8.92;73.29;99574.09;1088178;54;19939;-81
2023/03/22 05:50:43;;;;;;;;;;;;;;;9.00;73.00;99574.19;1088218;54;19935;-83
2023/03/22 05:51:47;;;;;;;;;;;;;;;9.05;72.66;99574.59;1088108;54;19947;-83
2023/03/22 05:52:52;;;;;;;;;;;;;;;9.06;72.78;99575.44;1088333;54;19930;-82
2023/03/22 05:53:55;;;;;;;;;;;;;;;9.05;72.42;99573.75;1088427;54;19943;-82
2023/03/22 05:55:02;;;;;;;;;;;;;;;9.01;72.84;99575.88;1088283;54;19989;-81
2023/03/22 05:56:08;;;;;;;;;;;;;;;9.08;72.84;99576.09;1088404;54;19923;-81
2023/03/22 05:57:12;;;;;;;;;;;;;;;9.08;72.69;99573.44;1088265;54;19942;-82
2023/03/22 05:58:17;;;;;;;;;;;;;;;9.10;72.41;99581.31;1088336;54;19942;-81
2023/03/22 05:59:21;;;;;;;;;;;;;;;9.09;72.31;99575.13;1088461;54;19950;-82
2023/03/22 06:00:37;;;;;;;;;;;;;;;9.14;72.23;99580.03;1088406;54;19973;-83
2023/03/22 06:01:41;;;;;;;;;;;;;;;9.10;72.66;99586.66;1088583;54;19927;-83
2023/03/22 06:05:49;;;;;;;;;;;;;;;9.14;72.35;99588.88;1088482;54;19938;-84
2023/03/22 06:06:52;;;;;;;;;;;;;;;9.16;72.27;99589.53;1088463;54;20003;-82
2023/03/22 06:07:57;;;;;;;;;;;;;;;9.23;71.94;99589.81;1088906;46;19927;-81
2023/03/22 06:08:59;;;;;;;;;;;;;;;9.21;72.17;99584.63;1090208;46;19927;-83
2023/03/22 06:13:07;;;;;;;;;;;;;;;9.30;71.49;99598.06;1088470;54;19919;-84
2023/03/22 06:14:08;;;;;;;;;;;;;;;9.27;71.64;99593.88;1088500;54;19927;-83
2023/03/22 06:15:38;;;;;;;;;;;;;;;9.30;71.62;99590.06;1088570;47;19942;-82
2023/03/22 06:16:40;;;;;;;;;;;;;;;9.33;71.63;99587.09;1088498;54;19931;-83
2023/03/22 06:18:10;;;;;;;;;;;;;;;9.35;71.60;99590.47;1089184;46;19927;-82
2023/03/22 06:19:11;;;;;;;;;;;;;;;9.39;71.25;99591.84;1088183;54;19927;-81
2023/03/22 06:20:19;;;;;;;;;;;;;;;9.34;71.49;99592.28;1088775;47;19945;-82
2023/03/22 06:21:20;;;;;;;;;;;;;;;9.41;70.92;99587.19;1087988;54;19935;-83
2023/03/22 06:22:38;;;;;;;;;;;;;;;9.43;70.96;99587.03;1089757;46;19934;-82
2023/03/22 06:23:39;;;;;;;;;;;;;;;9.52;70.50;99595.00;1088073;54;19954;-83
2023/03/22 06:25:10;;;;;;;;;;;;;;;9.55;70.61;99601.00;1090262;46;19935;-84
2023/03/22 06:26:11;;;;;;;;;;;;;;;9.57;70.12;99591.03;1088664;46;19938;-85
2023/03/22 06:37:52;;;;;;;;;;;;;;;9.73;69.39;99599.22;1087429;54;19943;-83
2023/03/22 06:38:55;;;;;;;;;;;;;;;9.70;69.27;99594.19;1088117;54;19923;-84
2023/03/22 06:41:39;;;;;;;;;;;;;;;;;;;;;
2023/03/22 06:51:22;;;;;;;;;;;;;;;10.14;67.85;99594.28;1087631;54;19973;-81
2023/03/22 07:01:52;;;;;;;;;;;;;;;10.51;65.03;99594.28;1087573;39;21019;-83
2023/03/22 07:02:56;;;;;;;;;;;;;;;10.46;65.23;99597.44;1088131;54;19935;-82
2023/03/22 07:03:58;;;;;;;;;;;;;;;10.55;65.73;99598.34;1088353;54;19943;-84
2023/03/22 07:05:05;;;;;;;;;;;;;;;10.56;65.22;99605.38;1089597;46;19957;-83
2023/03/22 07:06:11;;;;;;;;;;;;;;;10.56;64.84;99597.34;1088499;54;19966;-83
2023/03/22 07:08:33;;;;;;;;;;;;;;;10.65;64.52;99593.75;1088102;54;19994;-82
2023/03/22 07:09:35;;;;;;;;;;;;;;;10.64;64.63;99594.72;1088000;54;19942;-84
2023/03/22 07:10:39;;;;;;;;;;;;;;;10.64;64.26;99592.06;1088257;54;19930;-83
2023/03/22 07:11:42;;;;;;;;;;;;;;;10.63;64.23;99600.25;1088071;54;19970;-83
2023/03/22 07:12:46;;;;;;;;;;;;;;;10.72;64.25;99594.78;1088074;54;19949;-83
2023/03/22 07:13:51;;;;;;;;;;;;;;;10.79;63.86;99588.81;1087914;54;20726;-82
2023/03/22 07:14:56;;;;;;;;;;;;;;;10.82;63.58;99591.16;1088131;54;19966;-82
2023/03/22 07:15:57;;;;;;;;;;;;;;;10.79;63.31;99594.16;1088209;54;19946;-84
2023/03/22 07:17:04;;;;;;;;;;;;;;;10.73;63.55;99596.47;1088135;54;20805;-82
2023/03/22 07:18:06;;;;;;;;;;;;;;;10.87;63.42;99583.50;1088341;54;19958;-84
2023/03/22 07:19:10;;;;;;;;;;;;;;;10.92;63.07;99591.91;1090625;46;19927;-83
2023/03/22 07:20:12;;;;;;;;;;;;;;;10.93;63.30;99589.06;1088335;54;19942;-82
2023/03/22 07:22:40;;;;;;;;;;;;;;;10.91;62.94;99592.91;1088239;54;19946;-81
2023/03/22 07:23:41;;;;;;;;;;;;;;;10.98;62.88;99590.44;1088202;54;19971;-83
2023/03/22 07:24:45;;;;;;;;;;;;;;;11.06;62.66;99596.66;1088158;54;19942;-82
2023/03/22 07:27:20;;;;;;;;;;;;;;;11.07;62.63;99589.47;1088487;39;20656;-84
2023/03/22 07:28:53;;;;;;;;;;;;;;;11.12;62.31;99592.50;1088370;54;19943;-84
2023/03/22 07:29:59;;;;;;;;;;;;;;;11.20;62.15;99584.50;1088366;54;19942;-81
2023/03/22 07:31:01;;;;;;;;;;;;;;;11.27;61.92;99587.38;1088847;46;20614;-80
2023/03/22 07:33:40;;;;;;;;;;;;;;;11.39;61.52;99590.59;1088291;54;19935;-79
2023/03/22 07:34:51;;;;;;;;;;;;;;;11.43;61.36;99591.16;1088342;54;19942;-79
2023/03/22 07:35:52;;;;;;;;;;;;;;;11.45;61.15;99595.34;1088478;54;19935;-82
2023/03/22 07:40:53;;;;;;;;;;;;;;;11.69;60.53;99602.63;1089356;39;20665;-82
2023/03/22 07:41:56;;;;;;;;;;;;;;;11.70;60.13;99601.63;1088401;54;19973;-83
2023/03/22 07:43:02;;;;;;;;;;;;;;;11.70;60.09;99598.09;1088056;54;20568;-81
2023/03/22 07:44:05;;;;;;;;;;;;;;;11.70;60.29;99593.59;1089396;46;20045;-83
2023/03/22 07:45:28;;;;;;;;;;;;;;;;;;;;;
2023/03/22 07:46:38;;;;;;;;;;;;;;;11.93;59.76;99592.13;1088106;54;19927;-84
2023/03/22 07:47:39;;;;;;;;;;;;;;;11.97;59.73;99590.78;1088139;54;19949;-83
2023/03/22 07:48:46;;;;;;;;;;;;;;;11.97;59.38;99593.44;1088412;54;19950;-85
2023/03/22 07:49:50;;;;;;;;;;;;;;;11.93;59.22;99592.94;1088481;54;19943;-85
2023/03/22 07:51:02;;;;;;;;;;;;;;;11.96;59.23;99592.63;1088552;54;19946;-83
2023/03/22 07:52:13;;;;;;;;;;;;;;;12.11;59.11;99595.53;1088464;54;19930;-82
2023/03/22 07:53:40;;;;;;;;;;;;;;;12.21;58.74;99592.69;1088077;54;19942;-81
2023/03/22 07:54:42;;;;;;;;;;;;;;;12.19;58.44;99581.28;1088209;54;19938;-83
2023/03/22 07:55:46;;;;;;;;;;;;;;;12.27;58.50;99594.72;1088390;54;19974;-83
2023/03/22 07:56:50;;;;;;;;;;;;;;;12.29;58.31;99592.69;1088406;54;20512;-84
2023/03/22 07:58:15;;;;;;;;;;;;;;;12.31;58.15;99596.03;1088487;54;19949;-84
2023/03/22 07:59:31;;;;;;;;;;;;;;;;;;;;;
2023/03/22 08:05:01;;;;;;;;;;;;;;;12.73;57.69;99587.97;1088139;54;19958;-84
2023/03/22 08:06:07;;;;;;;;;;;;;;;12.73;57.34;99583.44;1093132;39;20721;-84
2023/03/22 08:07:53;;;;;;;;;;;;;;;12.75;57.44;99583.28;1087924;54;19942;-84
2023/03/22 08:08:54;;;;;;;;;;;;;;;12.90;56.87;99588.75;1088123;54;19947;-82
2023/03/22 08:16:12;;;;;;;;;;;;;;;13.47;55.43;99585.09;1088035;54;19951;-83
2023/03/22 08:20:49;;;;;;;;;;;;;;;;;;;;;
2023/03/22 08:28:31;;;;;;;;;;;;;;;14.56;52.24;99583.34;1093596;39;20366;-81
2023/03/22 08:53:13;;;;;;;;;;;;;;;14.79;51.65;99578.78;1087947;54;20434;-82
2023/03/22 08:56:02;;;;;;;;;;;;;;;15.27;50.61;99567.63;1087996;54;19950;-81
2023/03/22 09:46:58;;;;;;;;;;;;;;;17.93;42.84;99519.59;1087766;54;20525;-82
2023/03/22 09:48:29;;;;;;;;;;;;;;;17.41;42.62;99515.72;1087729;54;19938;-81
2023/03/22 09:49:34;;;;;;;;;;;;;;;16.98;43.05;99514.94;1089840;39;20443;-81
2023/03/22 09:54:09;;;;;;;;;;;;;;;17.27;43.84;99515.69;1087598;54;19935;-81
2023/03/22 09:55:17;;;;;;;;;;;;;;;17.34;42.97;99514.88;1087716;54;20501;-81
2023/03/22 10:39:07;;;;;;;;;;;;;;;18.63;40.68;99460.69;1087051;54;19958;-82
2023/03/22 10:40:16;;;;;;;;;;;;;;;18.51;40.58;99465.91;1087798;54;20051;-80
2023/03/22 10:41:21;;;;;;;;;;;;;;;18.64;39.91;99459.66;1088109;54;20559;-83
2023/03/22 10:42:24;;;;;;;;;;;;;;;18.85;39.71;99453.13;1087959;54;19942;-82
2023/03/22 10:43:31;;;;;;;;;;;;;;;19.14;39.76;99462.63;1087843;54;19977;-83
2023/03/22 10:44:37;;;;;;;;;;;;;;;19.35;39.27;99444.41;1087934;54;19965;-82
2023/03/22 10:45:41;;;;;;;;;;;;;;;19.40;38.82;99443.75;1088030;54;19946;-82
2023/03/22 10:46:47;;;;;;;;;;;;;;;19.44;38.89;99448.53;1087966;54;19943;-82
2023/03/22 10:47:56;;;;;;;;;;;;;;;19.33;38.19;99451.91;1087890;54;19942;-82
2023/03/22 10:56:59;;;;;;;;;;;;;;;19.06;38.95;99446.63;1087393;54;20611;-82
2023/03/22 10:59:51;;;;;;;;;;;;;;;19.06;38.11;99435.78;1087591;54;19946;-82
2023/03/22 11:07:34;;;;;;;;;;;;;;;19.03;37.95;99433.50;1087792;54;19947;-82
2023/03/22 11:27:47;;;;;;;;;;;;;;;18.20;38.78;99427.69;1087502;54;19934;-82
2023/03/22 11:29:28;;;;;;;;;;;;;;;18.12;39.17;99424.34;1087589;54;19946;-82
2023/03/22 11:32:32;;;;;;;;;;;;;;;18.40;38.00;99418.69;1087704;54;20829;-80
2023/03/22 11:45:38;;;;;;;;;;;;;;;18.37;38.04;99409.09;1088056;54;20015;-82
2023/03/22 12:02:27;;;;;;;;;;;;;;;18.27;38.93;99386.25;1088010;54;19937;-82
2023/03/22 12:06:56;;;;;;;;;;;;;;;18.51;38.32;99379.31;1087745;54;19959;-81
2023/03/22 12:10:15;;;;;;;;;;;;;;;18.83;38.06;99371.28;1087961;54;19961;-82
2023/03/22 12:13:14;;;;;;;;;;;;;;;;;;;;;
2023/03/22 12:20:49;;;;;;;;;;;;;;;18.98;37.70;99352.09;1087916;54;20002;-82
2023/03/22 12:22:10;;;;;;;;;;;;;;;18.81;34.69;99362.56;1087761;54;19942;-80
2023/03/22 12:23:24;;;;;;;;;;;;;;;18.91;34.67;99370.19;1090805;46;19942;-82
2023/03/22 12:54:40;;;;;;;;;;;;;;;19.14;35.60;99340.72;1087970;54;20000;-81
2023/03/22 13:10:29;;;;;;;;;;;;;;;19.36;34.75;99309.72;1087806;54;19930;-81
2023/03/22 13:13:54;;;;;;;;;;;;;;;19.24;35.25;99312.34;1087662;54;19942;-83
2023/03/22 13:16:52;;;;;;;;;;;;;;;19.23;35.51;99308.78;1087757;54;19945;-81
2023/03/22 13:29:00;;;;;;;;;;;;;;;19.47;35.08;99293.56;1088132;54;19943;-83
2023/03/22 13:39:45;;;;;;;;;;;;;;;19.46;33.89;99270.22;1088253;54;19942;-84
2023/03/22 13:58:45;;;;;;;;;;;;;;;19.62;33.73;99249.88;1087464;47;19939;-85
2023/03/22 14:00:13;;;;;;;;;;;;;;;19.68;33.69;99250.84;1088041;54;19949;-81
2023/03/22 14:01:26;;;;;;;;;;;;;;;19.69;33.77;99257.94;1088373;54;19973;-83
2023/03/22 14:02:32;;;;;;;;;;;;;;;19.78;33.57;99245.75;1088376;54;19958;-84
2023/03/22 14:03:38;;;;;;;;;;;;;;;19.92;33.33;99246.47;1088365;54;19934;-83
2023/03/22 14:04:54;;;;;;;;;;;;;;;19.73;33.22;99244.75;1088355;54;19946;-83
2023/03/22 14:06:16;;;;;;;;;;;;;;;19.64;33.59;99236.09;1088377;54;19983;-83
2023/03/22 14:07:33;;;;;;;;;;;;;;;19.71;33.84;99241.44;1088355;54;19923;-84
2023/03/22 14:08:44;;;;;;;;;;;;;;;19.80;33.70;99245.50;1088933;46;19938;-83
2023/03/22 14:10:12;;;;;;;;;;;;;;;19.86;33.98;99238.41;1088180;54;19942;-84
2023/03/22 14:23:09;;;;;;;;;;;;;;;20.18;33.61;99224.69;1092013;39;20858;-84
2023/03/22 14:32:37;;;;;;;;;;;;;;;20.45;32.45;99221.63;1087911;54;19939;-83
2023/03/22 14:33:43;;;;;;;;;;;;;;;20.47;32.67;99222.22;1088155;46;19958;-79
2023/03/22 14:34:52;;;;;;;;;;;;;;;20.38;33.11;99218.97;1088426;46;19943;-81
2023/03/22 14:36:00;;;;;;;;;;;;;;;20.23;33.39;99220.22;1089347;46;19954;-80
2023/03/22 14:37:03;;;;;;;;;;;;;;;20.23;33.34;99222.09;1095682;31;20557;-81
2023/03/22 14:38:11;;;;;;;;;;;;;;;20.31;33.20;99219.06;1088717;47;19946;-81
2023/03/22 14:39:15;;;;;;;;;;;;;;;20.38;32.97;99214.41;1087933;47;19938;-80
2023/03/22 14:40:34;;;;;;;;;;;;;;;20.24;32.87;99215.63;1088203;47;19938;-81
2023/03/22 14:42:56;;;;;;;;;;;;;;;19.92;32.79;99211.22;1087870;54;19926;-81
2023/03/22 14:44:03;;;;;;;;;;;;;;;19.92;33.07;99215.81;1087815;54;19927;-82
2023/03/22 14:45:05;;;;;;;;;;;;;;;19.99;32.73;99215.72;1087645;54;19990;-83
2023/03/22 14:46:31;;;;;;;;;;;;;;;20.06;32.52;99209.16;1087537;54;19943;-81
2023/03/22 14:47:44;;;;;;;;;;;;;;;20.00;32.13;99212.78;1088223;47;19943;-83
2023/03/22 14:49:06;;;;;;;;;;;;;;;20.00;32.45;99210.09;1087704;54;19969;-82
2023/03/22 14:50:13;;;;;;;;;;;;;;;19.99;32.73;99205.72;1087621;54;19942;-82
2023/03/22 14:58:30;;;;;;;;;;;;;;;20.04;32.32;99205.03;1087186;54;19942;-82
2023/03/22 15:01:47;;;;;;;;;;;;;;;19.85;33.14;99204.16;1087576;54;19938;-83
2023/03/22 15:14:36;;;;;;;;;;;;;;;19.55;32.85;99188.66;1087532;54;20828;-84
2023/03/22 15:44:00;;;;;;;;;;;;;;;18.88;36.10;99194.66;1088476;54;19938;-85
2023/03/22 15:45:10;;;;;;;;;;;;;;;18.90;35.89;99179.84;1088393;54;19950;-83
2023/03/22 15:55:52;;;;;;;;;;;;;;;18.86;36.48;99178.59;1088005;54;19951;-84
2023/03/22 15:59:13;;;;;;;;;;;;;;;18.89;36.73;99182.78;1092597;39;20526;-84
2023/03/22 16:03:47;;;;;;;;;;;;;;;18.75;37.13;99182.03;1088429;54;19930;-83
2023/03/22 16:15:06;;;;;;;;;;;;;;;18.70;37.51;99178.09;1088136;54;20016;-82
2023/03/22 16:16:52;;;;;;;;;;;;;;;18.65;37.31;99194.19;1088171;54;19950;-81
2023/03/22 16:23:44;;;;;;;;;;;;;;;18.81;37.15;99195.50;1087999;54;19943;-84
2023/03/22 16:39:55;;;;;;;;;;;;;;;18.54;38.00;99187.56;1087656;54;19931;-82
2023/03/22 16:41:21;;;;;;;;;;;;;;;18.50;37.85;99194.50;1091899;46;19935;-83
2023/03/22 16:42:26;;;;;;;;;;;;;;;18.53;37.85;99194.03;1088277;54;19946;-84
2023/03/22 16:43:49;;;;;;;;;;;;;;;18.55;37.94;99191.13;1088381;54;19943;-84
2023/03/22 16:53:09;;;;;;;;;;;;;;;18.47;38.63;99189.50;1092195;46;19946;-87
2023/03/22 17:39:07;;;;;;;;;;;;;;;17.99;40.18;99225.09;1087666;54;19934;-86
2023/03/22 17:40:13;;;;;;;;;;;;;;;17.91;40.38;99226.97;1088582;54;19939;-82
2023/03/22 17:41:18;;;;;;;;;;;;;;;17.89;40.32;99231.75;1088444;54;19931;-84
2023/03/22 17:42:20;;;;;;;;;;;;;;;17.91;40.31;99228.81;1090276;46;19927;-84
2023/03/22 18:24:25;;;;;;;;;;;;;;;17.25;42.71;99249.50;1088462;46;19942;-85
2023/03/22 18:25:30;;;;;;;;;;;;;;;17.24;42.74;99253.28;1088477;54;19927;-84
2023/03/22 18:26:37;;;;;;;;;;;;;;;17.22;42.96;99256.16;1088425;54;19934;-81
2023/03/22 18:27:53;;;;;;;;;;;;;;;;;;;;;
2023/03/22 18:36:45;;;;;;;;;;;;;;;17.17;43.06;99250.56;1088135;54;19987;-85
2023/03/22 19:15:47;;;;;;;;;;;;;;;16.39;45.48;99262.59;1088351;54;19946;-81
2023/03/22 19:16:57;;;;;;;;;;;;;;;16.35;45.34;99264.88;1088691;54;19950;-82
2023/03/22 19:18:15;;;;;;;;;;;;;;;16.33;45.44;99258.88;1088770;54;19952;-84
2023/03/22 19:22:25;;;;;;;;;;;;;;;16.26;45.98;99255.31;1087709;54;19943;-82
2023/03/22 19:23:30;;;;;;;;;;;;;;;16.26;45.90;99249.09;1087286;54;19938;-81
2023/03/22 19:24:44;;;;;;;;;;;;;;;16.21;46.02;99249.69;1087945;54;19946;-82
2023/03/22 19:25:48;;;;;;;;;;;;;;;16.21;45.88;99252.41;1087886;54;19947;-81
2023/03/22 19:26:49;;;;;;;;;;;;;;;16.21;46.11;99255.09;1087889;54;19953;-82
2023/03/22 19:27:56;;;;;;;;;;;;;;;16.18;46.04;99252.78;1088101;54;19943;-82
2023/03/22 19:29:06;;;;;;;;;;;;;;;16.13;46.52;99245.28;1087814;54;19946;-81
2023/03/22 19:30:12;;;;;;;;;;;;;;;16.11;46.61;99252.75;1087887;54;19991;-82
2023/03/22 19:31:18;;;;;;;;;;;;;;;16.10;46.64;99252.97;1087719;54;19975;-81
2023/03/22 19:32:27;;;;;;;;;;;;;;;16.04;46.42;99257.28;1087598;54;19946;-82
2023/03/22 19:33:30;;;;;;;;;;;;;;;16.04;46.54;99250.03;1087679;54;19958;-81
2023/03/22 19:39:43;;;;;;;;;;;;;;;16.00;46.37;99254.16;1087906;54;19964;-82
2023/03/22 19:44:00;;;;;;;;;;;;;;;15.90;46.82;99253.69;1091682;39;20559;-82
2023/03/22 19:45:03;;;;;;;;;;;;;;;15.88;47.15;99248.50;1087769;54;19969;-82
2023/03/22 19:46:14;;;;;;;;;;;;;;;15.89;47.07;99243.94;1087858;54;19927;-82
2023/03/22 20:17:06;;;;;;;;;;;;;;;;;;;;;
2023/03/22 20:18:30;;;;;;;;;;;;;;;15.34;48.81;99241.91;1088013;54;19950;-81
2023/03/22 20:19:31;;;;;;;;;;;;;;;15.30;49.20;99235.25;1087945;39;20651;-83
2023/03/22 20:20:36;;;;;;;;;;;;;;;15.31;49.28;99239.59;1088050;54;19935;-84
2023/03/22 20:21:45;;;;;;;;;;;;;;;15.28;49.24;99237.31;1088033;54;19942;-84
2023/03/22 20:22:52;;;;;;;;;;;;;;;15.25;49.46;99233.16;1092722;31;20683;-81
2023/03/22 20:23:54;;;;;;;;;;;;;;;15.21;49.58;99241.81;1087905;54;20580;-82
2023/03/22 20:26:29;;;;;;;;;;;;;;;15.06;50.13;99237.31;1087882;54;19942;-82
2023/03/22 20:27:33;;;;;;;;;;;;;;;15.06;50.12;99242.72;1089597;46;19939;-82
2023/03/22 20:28:41;;;;;;;;;;;;;;;15.03;49.90;99240.41;1087808;54;19951;-83
2023/03/22 20:29:42;;;;;;;;;;;;;;;14.93;50.49;99243.44;1088311;46;19949;-82
2023/03/22 20:30:48;;;;;;;;;;;;;;;14.88;50.51;99251.22;1087866;54;19942;-82
2023/03/22 20:31:49;;;;;;;;;;;;;;;14.86;50.43;99252.44;1087573;54;19946;-82
2023/03/22 20:32:55;;;;;;;;;;;;;;;14.88;50.40;99247.72;1087411;54;19964;-82
2023/03/22 20:34:01;;;;;;;;;;;;;;;14.83;50.63;99256.38;1087433;54;19950;-81
2023/03/22 20:35:03;;;;;;;;;;;;;;;14.82;50.27;99249.31;1087737;54;19942;-82
2023/03/22 20:36:08;;;;;;;;;;;;;;;14.85;50.22;99248.09;1087835;54;20426;-81
2023/03/22 20:37:09;;;;;;;;;;;;;;;14.84;50.39;99247.28;1088335;54;20481;-83
2023/03/22 20:38:23;;;;;;;;;;;;;;;14.82;50.26;99252.84;1089358;39;20519;-82
2023/03/22 20:39:27;;;;;;;;;;;;;;;14.79;50.91;99250.53;1087994;54;19954;-82
2023/03/22 20:40:34;;;;;;;;;;;;;;;14.83;50.42;99253.69;1088256;54;19979;-83
2023/03/22 20:41:42;;;;;;;;;;;;;;;14.81;50.89;99250.34;1088982;46;19947;-81
2023/03/22 20:42:43;;;;;;;;;;;;;;;14.87;50.27;99246.91;1088193;54;19946;-82
2023/03/22 20:43:48;;;;;;;;;;;;;;;14.87;50.32;99246.06;1088322;54;19978;-84
2023/03/22 20:44:53;;;;;;;;;;;;;;;14.86;50.53;99255.16;1089338;46;19942;-83
2023/03/22 21:14:24;;;;;;;;;;;;;;;14.43;51.83;99254.06;1087151;54;19942;-83